Time;durP1;ratioP1;P1;durP2;ratioP2;P2;SDS_P1;SDS_P2;PMS_P1;PMS_P2;Temp;Humidity;BMP_temperature;BMP_pressure;BME280_temperature;BME280_humidity;BME280_pressure;Samples;Min_cycle;Max_cycle;Signal;HPM_P1;HPM_P2
2023/12/21 00:02:05;;;;;;;5.00;3.87;;;4.20;99.90;;;;;;5190939;28;20439;-51
2023/12/21 00:04:36;;;;;;;8.80;4.90;;;4.20;99.90;;;;;;5192753;28;20530;-50
2023/12/21 00:07:07;;;;;;;6.50;5.33;;;4.20;99.90;;;;;;5187371;28;20437;-50
2023/12/21 00:09:41;;;;;;;5.87;4.57;;;4.20;99.90;;;;;;5192346;28;20451;-52
2023/12/21 00:12:14;;;;;;;6.73;4.60;;;4.40;99.90;;;;;;5198758;28;20475;-51
2023/12/21 00:14:45;;;;;;;5.20;4.53;;;4.60;99.90;;;;;;5205928;28;20805;-50
2023/12/21 00:17:19;;;;;;;10.70;5.43;;;4.50;99.90;;;;;;5197001;28;20833;-52
2023/12/21 00:19:50;;;;;;;9.20;5.77;;;4.60;99.90;;;;;;5207873;28;20963;-51
2023/12/21 00:22:21;;;;;;;6.97;6.40;;;4.60;99.90;;;;;;5176425;28;20963;-50
2023/12/21 00:24:52;;;;;;;8.90;6.00;;;4.60;99.90;;;;;;5190723;28;20496;-51
2023/12/21 00:27:31;;;;;;;11.60;6.83;;;4.50;99.90;;;;;;5198901;28;20614;-54
2023/12/21 00:30:02;;;;;;;7.13;6.43;;;4.50;99.90;;;;;;5205788;28;20510;-52
2023/12/21 00:32:42;;;;;;;18.37;8.57;;;4.50;99.90;;;;;;5199737;28;20485;-51
2023/12/21 00:35:13;;;;;;;7.87;6.43;;;4.50;99.90;;;;;;5192585;28;20428;-51
2023/12/21 00:37:44;;;;;;;11.90;6.80;;;4.60;99.90;;;;;;5205803;28;20933;-51
2023/12/21 00:40:15;;;;;;;15.00;7.10;;;4.60;99.90;;;;;;5193359;28;20506;-51
2023/12/21 00:42:46;;;;;;;8.43;7.20;;;4.70;99.90;;;;;;5198627;28;20452;-51
2023/12/21 00:45:20;;;;;;;8.27;6.17;;;4.70;99.90;;;;;;5197742;28;20445;-51
2023/12/21 00:47:56;;;;;;;8.40;6.47;;;4.70;99.90;;;;;;5190803;28;20477;-51
2023/12/21 00:50:26;;;;;;;10.03;5.10;;;4.80;99.90;;;;;;5207033;28;20815;-52
2023/12/21 00:52:57;;;;;;;5.47;5.03;;;4.90;99.90;;;;;;5197579;28;20430;-50
2023/12/21 00:55:28;;;;;;;14.50;6.30;;;5.00;99.90;;;;;;5201110;28;20551;-51
2023/12/21 00:57:59;;;;;;;7.10;5.17;;;5.00;99.90;;;;;;5207453;28;20452;-52
2023/12/21 01:00:30;;;;;;;5.97;4.70;;;5.10;99.90;;;;;;5195044;28;20226;-50
2023/12/21 01:03:02;;;;;;;11.13;5.20;;;5.20;99.90;;;;;;5189604;28;20447;-50
2023/12/21 01:05:33;;;;;;;16.30;6.90;;;5.20;99.90;;;;;;5207817;28;20180;-52
2023/12/21 01:08:04;;;;;;;8.03;4.37;;;5.30;99.90;;;;;;5202695;28;20434;-51
2023/12/21 01:10:38;;;;;;;5.47;5.07;;;5.30;99.90;;;;;;5204905;28;20500;-53
2023/12/21 01:13:09;;;;;;;4.17;3.83;;;5.30;99.90;;;;;;5197929;28;20480;-50
2023/12/21 01:15:41;;;;;;;5.67;5.10;;;5.40;99.90;;;;;;5196485;28;20925;-53
2023/12/21 01:18:12;;;;;;;7.00;5.23;;;5.30;99.90;;;;;;5191453;28;20183;-51
2023/12/21 01:20:43;;;;;;;5.63;4.90;;;5.40;99.90;;;;;;5202723;28;20508;-50
2023/12/21 01:23:14;;;;;;;3.80;3.30;;;5.40;99.90;;;;;;5194450;28;20933;-52
2023/12/21 01:25:45;;;;;;;10.43;4.27;;;5.50;99.90;;;;;;5204974;28;20556;-50
2023/12/21 01:28:16;;;;;;;4.20;3.90;;;5.50;99.90;;;;;;5203262;28;21017;-50
2023/12/21 01:30:47;;;;;;;3.10;2.90;;;5.60;99.90;;;;;;5200693;28;20210;-52
2023/12/21 01:33:18;;;;;;;2.67;2.60;;;5.60;99.90;;;;;;5198961;28;20182;-51
2023/12/21 01:35:49;;;;;;;3.03;2.70;;;5.70;99.90;;;;;;5187578;28;20587;-50
2023/12/21 01:38:20;;;;;;;2.57;2.50;;;5.80;99.90;;;;;;5197424;28;20801;-50
2023/12/21 01:40:51;;;;;;;3.10;2.90;;;5.90;99.90;;;;;;5193695;28;20483;-51
2023/12/21 01:43:22;;;;;;;2.80;2.70;;;5.90;99.90;;;;;;5198733;28;20226;-50
2023/12/21 01:45:55;;;;;;;3.53;3.23;;;5.90;99.90;;;;;;5189265;28;20438;-52
2023/12/21 01:48:29;;;;;;;2.70;2.60;;;6.00;99.90;;;;;;5192525;28;20437;-51
2023/12/21 01:51:01;;;;;;;4.23;3.70;;;6.00;99.90;;;;;;5187610;28;20521;-51
2023/12/21 01:53:33;;;;;;;2.37;2.27;;;6.10;99.90;;;;;;5199133;28;20475;-51
2023/12/21 01:56:05;;;;;;;9.60;3.60;;;6.10;99.90;;;;;;5199978;28;20446;-50
2023/12/21 01:58:37;;;;;;;4.67;3.20;;;6.10;99.90;;;;;;5186129;28;21036;-54
2023/12/21 02:01:09;;;;;;;3.10;2.90;;;6.10;99.90;;;;;;5194477;28;20553;-51
2023/12/21 02:03:40;;;;;;;2.90;2.50;;;6.10;99.90;;;;;;5180096;28;20770;-51
2023/12/21 02:06:11;;;;;;;3.13;2.27;;;6.10;99.90;;;;;;5186731;28;20950;-51
2023/12/21 02:08:42;;;;;;;3.10;3.00;;;6.20;99.90;;;;;;5188261;28;20418;-50
2023/12/21 02:11:13;;;;;;;2.77;2.60;;;6.30;99.90;;;;;;5189647;28;20438;-52
2023/12/21 02:13:44;;;;;;;1.97;1.87;;;6.30;99.90;;;;;;5189872;28;20488;-50
2023/12/21 02:16:23;;;;;;;1.93;1.93;;;6.30;99.90;;;;;;5195662;28;20454;-52
2023/12/21 02:18:55;;;;;;;3.23;2.10;;;6.30;99.90;;;;;;5196884;28;20481;-51
2023/12/21 02:21:29;;;;;;;2.40;2.33;;;6.30;99.90;;;;;;5191446;28;21049;-50
2023/12/21 02:24:03;;;;;;;3.23;3.03;;;6.40;99.90;;;;;;5198905;28;20457;-51
2023/12/21 02:26:35;;;;;;;2.97;2.87;;;6.30;99.90;;;;;;5206088;28;20430;-49
2023/12/21 02:29:05;;;;;;;2.97;2.47;;;6.30;99.90;;;;;;5192712;28;20876;-50
2023/12/21 02:31:37;;;;;;;2.23;2.13;;;6.30;99.90;;;;;;5197743;28;20537;-49
2023/12/21 02:34:08;;;;;;;2.50;2.40;;;6.40;99.90;;;;;;5194149;28;20271;-50
2023/12/21 02:36:39;;;;;;;2.90;2.70;;;6.40;99.90;;;;;;5202965;28;20438;-50
2023/12/21 02:39:09;;;;;;;2.40;2.33;;;6.40;99.90;;;;;;5205887;28;20480;-50
2023/12/21 02:41:40;;;;;;;2.50;2.37;;;6.40;99.90;;;;;;5198110;28;20238;-51
2023/12/21 02:44:11;;;;;;;2.13;1.90;;;6.50;99.90;;;;;;5201102;28;20271;-51
2023/12/21 02:46:45;;;;;;;3.47;3.23;;;6.50;99.90;;;;;;5204947;28;20433;-50
2023/12/21 02:49:16;;;;;;;2.33;2.23;;;6.50;99.90;;;;;;5200810;28;20517;-50
2023/12/21 02:51:50;;;;;;;1.60;1.60;;;6.50;99.90;;;;;;5191849;28;20492;-49
2023/12/21 02:54:21;;;;;;;2.13;2.03;;;6.60;99.90;;;;;;5193087;28;20450;-50
2023/12/21 02:56:52;;;;;;;1.70;1.60;;;6.60;99.90;;;;;;5192888;28;20940;-51
2023/12/21 02:59:23;;;;;;;1.70;1.70;;;6.60;99.90;;;;;;5204095;28;20489;-51
2023/12/21 03:01:54;;;;;;;1.80;1.80;;;6.60;99.90;;;;;;5190659;28;20493;-51
2023/12/21 03:04:28;;;;;;;1.60;1.60;;;6.60;99.90;;;;;;5203547;28;20538;-51
2023/12/21 03:06:59;;;;;;;1.47;1.47;;;6.80;99.90;;;;;;5191502;28;20849;-51
2023/12/21 03:09:29;;;;;;;2.53;2.30;;;6.70;99.90;;;;;;5191676;28;20874;-52
2023/12/21 03:12:01;;;;;;;1.93;1.93;;;6.70;99.90;;;;;;5194972;28;20501;-50
2023/12/21 03:14:32;;;;;;;2.03;2.03;;;6.70;99.90;;;;;;5199871;28;20188;-50
2023/12/21 03:17:02;;;;;;;1.53;1.50;;;6.70;99.90;;;;;;5201688;28;20528;-49
2023/12/21 03:19:33;;;;;;;2.00;1.90;;;6.70;99.90;;;;;;5193524;28;20545;-49
2023/12/21 03:22:04;;;;;;;1.60;1.60;;;6.70;99.90;;;;;;5202068;28;20274;-50
2023/12/21 03:24:35;;;;;;;3.40;2.27;;;6.70;99.90;;;;;;5194191;28;21026;-51
2023/12/21 03:27:09;;;;;;;2.10;2.00;;;6.80;99.90;;;;;;5197190;28;20438;-51
2023/12/21 03:29:41;;;;;;;1.97;1.97;;;6.70;99.90;;;;;;5195863;28;20506;-50
2023/12/21 03:32:12;;;;;;;2.20;2.20;;;6.80;99.90;;;;;;5204118;28;20561;-50
2023/12/21 03:34:43;;;;;;;2.27;2.20;;;6.70;99.90;;;;;;5199016;28;20438;-50
2023/12/21 03:37:14;;;;;;;2.20;2.20;;;6.80;99.90;;;;;;5208512;28;20521;-49
2023/12/21 03:39:48;;;;;;;2.33;2.27;;;6.80;99.90;;;;;;5199970;28;20488;-48
2023/12/21 03:42:20;;;;;;;1.80;1.80;;;6.80;99.90;;;;;;5199777;28;20795;-50
2023/12/21 03:44:51;;;;;;;3.00;2.90;;;6.90;99.90;;;;;;5206911;28;20426;-50
2023/12/21 03:47:22;;;;;;;3.20;3.00;;;6.90;99.90;;;;;;5196761;28;20442;-51
2023/12/21 03:49:53;;;;;;;4.50;3.60;;;6.90;99.90;;;;;;5201849;28;20496;-51
2023/12/21 03:52:24;;;;;;;3.33;3.13;;;6.80;99.90;;;;;;5201333;28;20215;-51
2023/12/21 03:54:54;;;;;;;2.70;2.60;;;6.90;99.90;;;;;;5206207;28;20549;-51
2023/12/21 03:57:25;;;;;;;3.03;2.93;;;6.90;99.90;;;;;;5205812;28;20732;-51
2023/12/21 03:59:56;;;;;;;3.60;3.27;;;7.10;99.90;;;;;;5206801;28;20203;-49
2023/12/21 04:02:27;;;;;;;2.77;2.77;;;7.00;99.90;;;;;;5206784;28;20674;-50
2023/12/21 04:04:58;;;;;;;3.87;3.57;;;7.00;99.90;;;;;;5193598;28;20184;-49
2023/12/21 04:07:29;;;;;;;3.20;3.10;;;7.10;99.90;;;;;;5204423;28;20433;-49
2023/12/21 04:10:03;;;;;;;2.40;2.40;;;7.10;99.90;;;;;;5205334;28;20192;-50
2023/12/21 04:12:34;;;;;;;2.53;2.43;;;7.20;99.90;;;;;;5233909;22;21011;-49
2023/12/21 04:15:05;;;;;;;2.20;2.17;;;7.20;99.90;;;;;;5226939;28;20417;-50
2023/12/21 04:17:36;;;;;;;1.93;1.93;;;7.10;99.90;;;;;;5217269;28;20578;-47
2023/12/21 04:20:07;;;;;;;1.70;1.70;;;7.20;99.90;;;;;;5215676;28;20238;-48
2023/12/21 04:22:38;;;;;;;2.77;2.60;;;7.20;99.90;;;;;;5212707;28;20832;-48
2023/12/21 04:25:08;;;;;;;2.80;2.70;;;7.20;99.90;;;;;;5209403;28;20438;-48
2023/12/21 04:27:39;;;;;;;2.60;2.50;;;7.20;99.90;;;;;;5200738;28;20176;-47
2023/12/21 04:30:10;;;;;;;4.40;4.00;;;7.20;99.90;;;;;;5204584;28;20175;-49
2023/12/21 04:32:42;;;;;;;3.93;3.70;;;7.20;99.90;;;;;;5211770;28;20207;-48
2023/12/21 04:35:13;;;;;;;3.23;3.03;;;7.20;99.90;;;;;;5206328;28;20930;-51
2023/12/21 04:37:44;;;;;;;3.00;2.90;;;7.20;99.90;;;;;;5188162;28;20440;-46
2023/12/21 04:40:15;;;;;;;2.73;2.60;;;7.20;99.90;;;;;;5206472;28;20264;-48
2023/12/21 04:42:51;;;;;;;3.07;2.97;;;7.30;99.90;;;;;;5203513;28;20286;-48
2023/12/21 04:45:22;;;;;;;7.10;2.97;;;7.30;99.90;;;;;;5208631;28;20460;-48
2023/12/21 04:47:53;;;;;;;5.00;3.50;;;7.30;99.90;;;;;;5205935;28;20930;-47
2023/12/21 04:50:24;;;;;;;2.63;2.53;;;7.30;99.90;;;;;;5210010;28;20466;-48
2023/12/21 04:52:54;;;;;;;4.73;3.00;;;7.40;99.90;;;;;;5212580;28;20253;-46
2023/12/21 04:55:25;;;;;;;4.37;4.07;;;7.40;99.90;;;;;;5205419;28;20188;-49
2023/12/21 04:57:55;;;;;;;3.63;3.30;;;7.40;99.90;;;;;;5204789;28;20698;-48
2023/12/21 05:00:29;;;;;;;3.10;2.80;;;7.40;99.90;;;;;;5204564;28;20199;-51
2023/12/21 05:02:59;;;;;;;2.50;2.40;;;7.30;99.90;;;;;;5204252;28;20199;-48
2023/12/21 05:05:30;;;;;;;3.30;3.10;;;7.40;99.90;;;;;;5189085;28;20442;-48
2023/12/21 05:08:00;;;;;;;3.53;3.17;;;7.50;99.90;;;;;;5202725;28;20183;-52
2023/12/21 05:10:31;;;;;;;2.57;2.53;;;7.40;99.90;;;;;;5205784;28;20183;-51
2023/12/21 05:13:02;;;;;;;3.77;3.50;;;7.40;99.90;;;;;;5202756;28;20187;-48
2023/12/21 05:15:32;;;;;;;3.80;3.60;;;7.50;99.90;;;;;;5202784;28;20609;-50
2023/12/21 05:18:03;;;;;;;3.03;2.93;;;7.50;99.90;;;;;;5203225;28;20187;-52
2023/12/21 05:20:33;;;;;;;4.63;4.23;;;7.50;99.90;;;;;;5188337;28;20203;-55
2023/12/21 05:23:04;;;;;;;4.00;3.80;;;7.50;99.90;;;;;;5205087;28;20187;-48
2023/12/21 05:25:35;;;;;;;2.50;2.40;;;7.60;99.90;;;;;;5203520;28;20180;-48
2023/12/21 05:28:06;;;;;;;4.03;3.83;;;7.60;99.90;;;;;;5175430;28;20608;-49
2023/12/21 05:30:38;;;;;;;3.47;3.27;;;7.50;99.90;;;;;;5199604;28;20176;-48
2023/12/21 05:33:08;;;;;;;3.20;3.10;;;7.60;99.90;;;;;;5204223;28;20476;-47
2023/12/21 05:35:39;;;;;;;3.47;3.17;;;7.70;99.90;;;;;;5204208;28;20442;-47
2023/12/21 05:38:09;;;;;;;5.87;3.40;;;7.60;99.90;;;;;;5204867;28;20732;-48
2023/12/21 05:40:40;;;;;;;3.90;3.50;;;7.60;99.90;;;;;;5203434;28;20218;-48
2023/12/21 05:43:10;;;;;;;3.53;3.33;;;7.60;99.90;;;;;;5205449;28;20184;-47
2023/12/21 05:45:41;;;;;;;3.47;3.00;;;7.70;99.90;;;;;;5204321;28;20267;-47
2023/12/21 05:48:12;;;;;;;4.00;3.70;;;7.60;99.90;;;;;;5205778;28;20172;-48
2023/12/21 05:50:42;;;;;;;2.93;2.73;;;7.60;99.90;;;;;;5205006;28;20203;-49
2023/12/21 05:53:13;;;;;;;4.70;3.97;;;7.70;99.90;;;;;;5204788;28;20652;-47
2023/12/21 05:55:43;;;;;;;2.50;2.50;;;7.60;99.90;;;;;;5205352;28;20226;-47
2023/12/21 05:58:14;;;;;;;3.13;2.93;;;7.60;99.90;;;;;;5202911;28;20188;-51
2023/12/21 06:00:45;;;;;;;3.80;2.93;;;7.70;99.90;;;;;;5203932;28;20560;-49
2023/12/21 06:03:15;;;;;;;2.57;2.43;;;7.70;99.90;;;;;;5185915;28;20585;-48
2023/12/21 06:05:46;;;;;;;3.17;2.50;;;7.60;99.90;;;;;;5185916;28;20186;-50
2023/12/21 06:08:17;;;;;;;3.30;3.13;;;7.80;99.90;;;;;;5201666;28;20222;-49
2023/12/21 06:10:47;;;;;;;2.50;2.40;;;7.70;99.90;;;;;;5204310;28;20215;-48
2023/12/21 06:13:18;;;;;;;2.97;2.83;;;7.70;99.90;;;;;;5204994;28;20804;-52
2023/12/21 06:15:48;;;;;;;3.13;2.90;;;7.70;99.90;;;;;;5198546;28;20192;-51
2023/12/21 06:18:19;;;;;;;2.40;2.30;;;7.80;99.90;;;;;;5201999;28;20199;-52
2023/12/21 06:20:49;;;;;;;2.10;2.10;;;7.80;99.90;;;;;;5186123;28;20294;-53
2023/12/21 06:23:20;;;;;;;2.17;2.00;;;7.80;99.90;;;;;;5203719;28;20233;-50
2023/12/21 06:25:51;;;;;;;2.90;2.80;;;7.80;99.90;;;;;;5203880;28;20263;-50
2023/12/21 06:28:22;;;;;;;4.00;3.03;;;7.90;99.90;;;;;;5204071;28;20180;-50
2023/12/21 06:30:52;;;;;;;4.40;2.60;;;7.80;99.90;;;;;;5201725;28;20260;-48
2023/12/21 06:33:23;;;;;;;11.73;3.67;;;7.70;99.90;;;;;;5204646;28;20422;-49
2023/12/21 06:35:54;;;;;;;2.00;2.00;;;7.80;99.90;;;;;;5203516;28;20675;-49
2023/12/21 06:38:24;;;;;;;3.23;3.13;;;7.80;99.90;;;;;;5201715;28;20191;-52
2023/12/21 06:40:55;;;;;;;2.53;2.37;;;7.80;99.90;;;;;;5200480;28;20216;-55
2023/12/21 06:43:26;;;;;;;3.63;3.43;;;7.80;99.90;;;;;;5195051;28;20210;-49
2023/12/21 06:45:57;;;;;;;2.43;2.33;;;7.80;99.90;;;;;;5200618;28;20190;-47
2023/12/21 06:48:27;;;;;;;2.60;2.60;;;7.70;99.90;;;;;;5196807;28;20229;-57
2023/12/21 06:50:58;;;;;;;3.03;2.83;;;7.80;99.90;;;;;;5174141;28;20465;-49
2023/12/21 06:53:29;;;;;;;3.03;2.93;;;7.80;99.90;;;;;;5191413;28;20207;-49
2023/12/21 06:56:00;;;;;;;3.10;2.90;;;7.80;99.90;;;;;;5195749;28;20258;-48
2023/12/21 06:58:30;;;;;;;2.40;2.30;;;7.70;99.90;;;;;;5190755;28;20187;-48
2023/12/21 07:01:01;;;;;;;3.20;3.03;;;7.70;99.90;;;;;;5201393;28;20466;-48
2023/12/21 07:03:31;;;;;;;5.47;3.30;;;7.70;99.90;;;;;;5190081;28;20555;-53
2023/12/21 07:06:02;;;;;;;2.80;2.70;;;7.70;99.90;;;;;;5200282;28;20190;-50
2023/12/21 07:08:33;;;;;;;4.23;3.37;;;7.70;99.90;;;;;;5199668;28;20176;-50
2023/12/21 07:11:03;;;;;;;3.23;3.03;;;7.80;99.90;;;;;;5200871;28;20238;-52
2023/12/21 07:13:34;;;;;;;3.50;3.17;;;7.70;99.90;;;;;;5202944;28;20333;-56
2023/12/21 07:16:06;;;;;;;4.70;4.20;;;7.70;99.90;;;;;;5200615;28;20256;-54
2023/12/21 07:18:37;;;;;;;4.10;3.80;;;7.70;99.90;;;;;;5199612;28;20562;-55
2023/12/21 07:21:08;;;;;;;2.77;2.67;;;7.70;99.90;;;;;;5202837;28;20485;-51
2023/12/21 07:23:39;;;;;;;2.67;2.47;;;7.70;99.90;;;;;;5180544;28;20450;-51
2023/12/21 07:26:10;;;;;;;5.07;3.60;;;7.70;99.90;;;;;;5167593;28;20539;-48
2023/12/21 07:28:41;;;;;;;3.60;3.37;;;7.70;99.90;;;;;;5201997;28;21336;-50
2023/12/21 07:31:13;;;;;;;4.33;3.93;;;7.70;99.90;;;;;;5201142;28;20453;-50
2023/12/21 07:33:44;;;;;;;4.50;3.90;;;7.60;99.90;;;;;;5183071;28;20184;-49
2023/12/21 07:36:15;;;;;;;3.63;3.43;;;7.50;99.90;;;;;;5204372;28;20449;-49
2023/12/21 07:38:45;;;;;;;2.77;2.60;;;7.50;99.90;;;;;;5169098;28;20238;-49
2023/12/21 07:41:16;;;;;;;3.43;3.13;;;7.50;99.90;;;;;;5200435;28;20198;-53
2023/12/21 07:43:46;;;;;;;3.57;3.30;;;7.40;99.90;;;;;;5200265;28;20187;-52
2023/12/21 07:46:18;;;;;;;3.40;3.10;;;7.40;99.90;;;;;;5200811;28;20178;-55
2023/12/21 07:48:49;;;;;;;3.03;2.90;;;7.40;99.90;;;;;;5200328;28;20180;-53
2023/12/21 07:51:19;;;;;;;3.10;2.87;;;7.40;99.90;;;;;;5204640;28;20457;-57
2023/12/21 07:53:50;;;;;;;3.47;3.27;;;7.40;99.90;;;;;;5200353;28;20184;-50
2023/12/21 07:56:21;;;;;;;3.43;2.60;;;7.40;99.90;;;;;;5202233;28;20246;-50
2023/12/21 07:58:52;;;;;;;3.53;3.30;;;7.40;99.90;;;;;;5200215;28;20730;-48
2023/12/21 08:01:22;;;;;;;2.80;2.70;;;7.40;99.90;;;;;;5203301;28;20616;-50
2023/12/21 08:03:53;;;;;;;4.40;4.10;;;7.30;99.90;;;;;;5181799;28;20271;-51
2023/12/21 08:06:24;;;;;;;4.47;4.07;;;7.30;99.90;;;;;;5201268;28;20187;-48
2023/12/21 08:08:54;;;;;;;2.87;2.77;;;7.30;99.90;;;;;;5180912;28;20706;-48
2023/12/21 08:11:25;;;;;;;3.30;3.20;;;7.30;99.90;;;;;;5187216;28;20557;-55
2023/12/21 08:13:55;;;;;;;4.50;4.07;;;7.30;99.90;;;;;;5200648;28;20287;-49
2023/12/21 08:16:26;;;;;;;3.77;3.50;;;7.30;99.90;;;;;;5184338;28;20191;-51
2023/12/21 08:18:57;;;;;;;3.20;3.07;;;7.30;99.90;;;;;;5187271;28;20279;-49
2023/12/21 08:21:27;;;;;;;4.10;3.90;;;7.30;99.90;;;;;;5174928;28;20235;-54
2023/12/21 08:24:01;;;;;;;3.60;3.30;;;7.30;99.90;;;;;;5195913;28;20176;-48
2023/12/21 08:26:32;;;;;;;3.03;2.83;;;7.30;99.90;;;;;;5185691;28;20192;-50
2023/12/21 08:29:02;;;;;;;3.23;3.03;;;7.40;99.90;;;;;;5198973;28;20465;-50
2023/12/21 08:31:33;;;;;;;3.20;3.00;;;7.40;99.90;;;;;;5198505;28;20210;-51
2023/12/21 08:34:03;;;;;;;2.70;2.60;;;7.40;99.90;;;;;;5198891;28;20186;-53
2023/12/21 08:36:36;;;;;;;2.70;2.60;;;7.40;99.90;;;;;;5184540;28;20211;-49
2023/12/21 08:39:06;;;;;;;3.33;2.73;;;7.40;99.90;;;;;;5202284;28;20214;-49
2023/12/21 08:41:39;;;;;;;5.40;3.37;;;7.40;99.90;;;;;;5183148;28;20466;-49
2023/12/21 08:44:10;;;;;;;2.23;2.13;;;7.40;99.90;;;;;;5202148;28;20581;-48
2023/12/21 08:46:42;;;;;;;2.33;2.07;;;7.40;99.90;;;;;;5186170;28;20492;-49
2023/12/21 08:49:15;;;;;;;2.00;1.90;;;7.30;99.90;;;;;;5198996;28;20438;-51
2023/12/21 08:51:45;;;;;;;1.53;1.53;;;7.40;99.90;;;;;;5200981;28;20453;-52
2023/12/21 08:54:17;;;;;;;1.40;1.40;;;7.40;99.90;;;;;;5202576;28;20430;-52
2023/12/21 08:56:50;;;;;;;1.17;1.17;;;7.40;99.90;;;;;;5202109;28;20176;-52
2023/12/21 08:59:25;;;;;;;1.20;1.20;;;7.40;99.90;;;;;;5200634;28;20553;-53
2023/12/21 09:01:56;;;;;;;1.23;1.13;;;7.40;99.90;;;;;;5201721;28;20450;-49
2023/12/21 09:04:27;;;;;;;1.70;1.60;;;7.40;99.90;;;;;;5202392;28;20784;-50
2023/12/21 09:06:57;;;;;;;1.27;1.27;;;7.50;99.90;;;;;;5201794;28;20563;-48
2023/12/21 09:09:29;;;;;;;3.67;1.97;;;7.50;99.90;;;;;;5202525;28;20329;-51
2023/12/21 09:12:00;;;;;;;1.90;1.80;;;7.50;99.90;;;;;;5202106;28;20221;-51
2023/12/21 09:14:30;;;;;;;2.43;1.40;;;7.50;99.90;;;;;;5186523;28;20816;-49
2023/12/21 09:17:03;;;;;;;2.03;1.63;;;7.50;99.90;;;;;;5200935;28;20187;-48
2023/12/21 09:19:34;;;;;;;27.57;10.90;;;7.50;99.90;;;;;;5183450;28;20687;-51
2023/12/21 09:22:05;;;;;;;4.70;3.50;;;7.50;99.90;;;;;;5199849;28;20902;-49
2023/12/21 09:24:38;;;;;;;5.87;4.97;;;7.60;99.90;;;;;;5169634;28;20529;-49
2023/12/21 09:27:09;;;;;;;1.43;0.90;;;7.60;99.90;;;;;;5200219;28;20187;-51
2023/12/21 09:29:40;;;;;;;1.20;1.20;;;7.50;99.90;;;;;;5204885;28;20461;-48
2023/12/21 09:32:10;;;;;;;1.60;1.50;;;7.60;99.90;;;;;;5199515;28;20267;-48
2023/12/21 09:34:44;;;;;;;1.83;1.73;;;7.50;99.90;;;;;;5201955;28;20537;-48
2023/12/21 09:37:16;;;;;;;2.63;2.07;;;7.50;99.90;;;;;;5183684;28;20188;-49
2023/12/21 09:39:46;;;;;;;0.80;0.80;;;7.60;99.90;;;;;;5201649;28;20466;-48
2023/12/21 09:42:19;;;;;;;1.30;1.20;;;7.60;99.90;;;;;;5199500;28;20461;-47
2023/12/21 09:44:50;;;;;;;2.43;1.47;;;7.60;99.90;;;;;;5200809;28;20183;-50
2023/12/21 09:47:23;;;;;;;1.80;1.00;;;7.60;99.90;;;;;;5199999;28;20485;-51
2023/12/21 09:49:54;;;;;;;1.70;1.30;;;7.60;99.90;;;;;;5200577;28;20442;-50
2023/12/21 09:52:25;;;;;;;0.70;0.70;;;7.60;99.90;;;;;;5199442;28;21202;-50
2023/12/21 09:54:57;;;;;;;1.90;1.50;;;7.70;99.90;;;;;;5184700;28;20275;-52
2023/12/21 09:57:28;;;;;;;1.97;1.87;;;7.60;99.90;;;;;;5200057;28;20438;-50
2023/12/21 10:00:00;;;;;;;1.63;0.90;;;7.70;99.90;;;;;;5199480;28;20880;-50
2023/12/21 10:02:31;;;;;;;1.07;0.97;;;7.60;99.90;;;;;;5201399;28;20307;-53
2023/12/21 10:05:04;;;;;;;3.57;0.87;;;7.70;99.90;;;;;;5201296;28;21705;-52
2023/12/21 10:07:35;;;;;;;1.03;0.50;;;7.80;99.90;;;;;;5201686;28;20442;-50
2023/12/21 10:10:06;;;;;;;0.50;0.50;;;7.80;99.90;;;;;;5199431;28;20196;-55
2023/12/21 10:12:59;;;;;;;0.60;0.60;;;7.80;99.90;;;;;;5235974;22;20500;-52
2023/12/21 10:15:33;;;;;;;0.77;0.77;;;7.80;99.90;;;;;;5241505;28;20436;-52
2023/12/21 10:18:08;;;;;;;0.60;0.60;;;7.80;99.90;;;;;;5227811;28;20486;-51
2023/12/21 10:20:39;;;;;;;0.40;0.40;;;7.80;99.90;;;;;;5243372;28;20460;-52
2023/12/21 10:23:12;;;;;;;0.60;0.60;;;7.80;99.90;;;;;;5224502;28;20925;-52
2023/12/21 10:25:47;;;;;;;0.77;0.57;;;7.80;99.90;;;;;;5205663;28;20448;-53
2023/12/21 10:28:22;;;;;;;0.50;0.50;;;7.80;99.90;;;;;;5189748;28;20484;-52
2023/12/21 10:30:55;;;;;;;0.47;0.47;;;7.90;99.90;;;;;;5211793;28;20504;-52
2023/12/21 10:33:26;;;;;;;2.73;1.00;;;7.90;99.90;;;;;;5210296;28;21010;-52
2023/12/21 10:35:58;;;;;;;1.87;0.60;;;7.90;99.90;;;;;;5204421;28;20477;-53
2023/12/21 10:38:29;;;;;;;0.50;0.50;;;7.90;99.90;;;;;;5205440;28;20437;-52
2023/12/21 10:41:05;;;;;;;0.80;0.80;;;8.00;99.90;;;;;;5222902;28;20489;-52
2023/12/21 10:43:36;;;;;;;12.73;1.00;;;8.00;99.90;;;;;;5209796;28;20471;-52
2023/12/21 10:46:09;;;;;;;0.50;0.40;;;8.10;99.90;;;;;;5208457;28;20967;-52
2023/12/21 10:48:40;;;;;;;1.90;0.73;;;8.00;99.90;;;;;;5222207;28;20175;-52
2023/12/21 10:51:11;;;;;;;0.60;0.60;;;8.10;99.90;;;;;;5221737;28;20457;-52
2023/12/21 10:53:45;;;;;;;0.73;0.70;;;8.00;99.90;;;;;;5221170;28;20467;-52
2023/12/21 10:56:17;;;;;;;0.43;0.43;;;8.00;99.90;;;;;;5201291;28;20425;-52
2023/12/21 10:58:50;;;;;;;0.93;0.80;;;8.10;99.90;;;;;;5203842;28;20429;-54
2023/12/21 11:01:24;;;;;;;2.93;0.70;;;8.00;99.90;;;;;;5217064;28;21026;-51
2023/12/21 11:04:04;;;;;;;0.70;0.50;;;8.00;99.90;;;;;;5220748;28;20986;-53
2023/12/21 11:06:41;;;;;;;3.70;0.60;;;8.10;99.90;;;;;;5221962;28;20433;-52
2023/12/21 11:09:18;;;;;;;0.90;0.60;;;8.10;99.90;;;;;;5220945;28;20900;-52
2023/12/21 11:11:50;;;;;;;0.70;0.70;;;8.10;99.90;;;;;;5222379;28;20492;-53
2023/12/21 11:14:21;;;;;;;0.80;0.70;;;8.10;99.90;;;;;;5205382;28;20872;-51
2023/12/21 11:17:02;;;;;;;0.70;0.70;;;8.00;99.90;;;;;;5223000;28;20468;-52
2023/12/21 11:19:38;;;;;;;1.10;1.03;;;8.00;99.90;;;;;;5205341;28;20628;-52
2023/12/21 11:22:09;;;;;;;1.00;1.00;;;8.10;99.90;;;;;;5222966;28;20491;-52
2023/12/21 11:24:40;;;;;;;1.53;1.00;;;8.10;99.90;;;;;;5222489;28;20574;-52
2023/12/21 11:27:12;;;;;;;0.73;0.70;;;8.10;99.90;;;;;;5220769;28;20441;-52
2023/12/21 11:29:44;;;;;;;0.70;0.70;;;8.10;99.90;;;;;;5207506;28;20279;-51
2023/12/21 11:32:24;;;;;;;0.47;0.47;;;8.10;99.90;;;;;;5220534;28;20487;-52
2023/12/21 11:34:55;;;;;;;0.77;0.77;;;8.20;99.90;;;;;;5205654;28;20445;-52
2023/12/21 11:37:32;;;;;;;0.80;0.80;;;8.20;99.90;;;;;;5203518;28;24287;-51
2023/12/21 11:40:04;;;;;;;0.70;0.63;;;8.30;99.90;;;;;;5224534;28;20463;-52
2023/12/21 11:42:36;;;;;;;1.70;1.70;;;8.40;99.90;;;;;;5207339;28;20461;-52
2023/12/21 11:45:11;;;;;;;7.20;1.03;;;8.40;99.90;;;;;;5203631;28;20430;-51
2023/12/21 11:47:46;;;;;;;1.30;1.20;;;8.40;99.90;;;;;;5222472;28;20437;-50
2023/12/21 11:50:20;;;;;;;0.80;0.80;;;8.30;99.90;;;;;;5216555;28;20440;-52
2023/12/21 11:52:51;;;;;;;2.43;1.00;;;8.30;99.90;;;;;;5204484;28;20452;-51
2023/12/21 11:55:26;;;;;;;1.03;1.00;;;8.30;99.90;;;;;;5202318;28;20437;-52
2023/12/21 11:58:07;;;;;;;0.87;0.50;;;8.30;99.90;;;;;;5221239;28;20981;-52
2023/12/21 12:00:51;;;;;;;1.27;0.80;;;8.40;99.90;;;;;;5218309;28;20902;-52
2023/12/21 12:03:27;;;;;;;0.63;0.63;;;8.40;99.90;;;;;;5216191;28;20521;-54
2023/12/21 12:06:03;;;;;;;0.73;0.73;;;8.40;99.90;;;;;;5221901;28;20436;-51
2023/12/21 12:08:40;;;;;;;1.20;1.10;;;8.30;99.90;;;;;;5221909;28;20515;-52
2023/12/21 12:11:13;;;;;;;2.27;1.40;;;8.30;99.90;;;;;;5188263;28;20464;-52
2023/12/21 12:13:44;;;;;;;0.87;0.87;;;8.30;99.90;;;;;;5210284;28;20533;-53
2023/12/21 12:16:17;;;;;;;2.43;1.83;;;8.40;99.90;;;;;;5227205;28;20424;-52
2023/12/21 12:18:49;;;;;;;3.03;1.73;;;8.30;99.90;;;;;;5223842;28;20187;-53
2023/12/21 12:21:20;;;;;;;0.80;0.80;;;8.40;99.90;;;;;;5215343;28;20464;-52
2023/12/21 12:23:52;;;;;;;0.40;0.40;;;8.40;99.90;;;;;;5224843;28;20510;-52
2023/12/21 12:26:22;;;;;;;0.50;0.50;;;8.40;99.90;;;;;;5224677;28;20440;-51
2023/12/21 12:28:53;;;;;;;0.80;0.80;;;8.40;99.90;;;;;;5208140;28;20960;-52
2023/12/21 12:31:24;;;;;;;5.40;3.70;;;8.40;99.90;;;;;;5213588;28;20536;-53
2023/12/21 12:33:55;;;;;;;1.27;1.07;;;8.50;99.90;;;;;;5207313;28;20183;-53
2023/12/21 12:36:26;;;;;;;5.93;1.13;;;8.40;99.90;;;;;;5208072;28;20436;-52
2023/12/21 12:38:58;;;;;;;0.70;0.70;;;8.40;99.90;;;;;;5221997;28;20781;-52
2023/12/21 12:41:29;;;;;;;0.40;0.40;;;8.50;99.90;;;;;;5208983;28;21023;-52
2023/12/21 12:44:00;;;;;;;1.63;0.60;;;8.40;99.90;;;;;;5203614;28;20521;-57
2023/12/21 12:46:31;;;;;;;1.23;0.80;;;8.50;99.90;;;;;;5223045;28;20536;-52
2023/12/21 12:49:02;;;;;;;1.43;0.97;;;8.50;99.90;;;;;;5209304;28;20710;-54
2023/12/21 12:51:32;;;;;;;0.97;0.97;;;8.50;99.90;;;;;;5224726;28;20951;-52
2023/12/21 12:54:06;;;;;;;0.90;0.90;;;8.60;99.90;;;;;;5208867;28;20183;-52
2023/12/21 12:56:51;;;;;;;0.77;0.77;;;8.50;99.90;;;;;;5209560;28;20548;-51
2023/12/21 12:59:22;;;;;;;1.03;1.03;;;8.50;99.90;;;;;;5209935;28;20602;-52
2023/12/21 13:01:53;;;;;;;1.17;1.00;;;8.60;99.90;;;;;;5209830;28;20548;-52
2023/12/21 13:04:24;;;;;;;1.90;0.70;;;8.50;99.90;;;;;;5226841;28;20907;-52
2023/12/21 13:06:55;;;;;;;3.50;0.60;;;8.60;99.90;;;;;;5226613;28;20426;-52
2023/12/21 13:09:27;;;;;;;0.87;0.87;;;8.60;99.90;;;;;;5210171;28;20440;-51
2023/12/21 13:11:59;;;;;;;2.07;1.90;;;8.60;99.90;;;;;;5225324;28;20480;-51
2023/12/21 13:14:33;;;;;;;3.07;0.80;;;8.60;99.90;;;;;;5226164;28;20450;-53
2023/12/21 13:17:04;;;;;;;2.83;2.73;;;8.50;99.90;;;;;;5227088;28;20783;-52
2023/12/21 13:19:35;;;;;;;0.60;0.60;;;8.60;99.90;;;;;;5225275;28;20507;-52
2023/12/21 13:22:11;;;;;;;0.70;0.70;;;8.60;99.90;;;;;;5193991;28;20481;-52